createdAt,value
2022-10-20T00:03:47.481Z,100856.50
2022-10-20T00:08:50.231Z,100850.25
2022-10-20T00:13:54.338Z,100847.50
2022-10-20T00:18:58.212Z,100850.00
2022-10-20T00:24:01.838Z,100862.75
2022-10-20T00:29:05.078Z,100868.88
2022-10-20T00:34:07.574Z,100865.44
2022-10-20T00:39:09.752Z,100855.69
2022-10-20T00:44:49.523Z,100869.91
2022-10-20T00:49:52.243Z,100850.97
2022-10-20T00:54:54.529Z,100867.72
2022-10-20T00:59:56.886Z,100864.84
2022-10-20T01:04:59.345Z,100865.50
2022-10-20T01:10:02.955Z,100852.38
2022-10-20T01:15:33.237Z,100865.25
2022-10-20T01:20:56.426Z,100851.84
2022-10-20T01:26:32.483Z,100870.66
2022-10-20T01:31:49.341Z,100870.47
2022-10-20T01:37:05.314Z,100861.16
2022-10-20T01:42:20.286Z,100870.25
2022-10-20T01:47:25.791Z,100869.22
2022-10-20T01:52:29.576Z,100872.34
2022-10-20T01:57:56.493Z,100882.19
2022-10-20T02:03:20.894Z,100882.00
2022-10-20T02:08:35.141Z,100889.31
2022-10-20T02:13:40.142Z,100883.31
2022-10-20T02:18:44.445Z,100886.94
2022-10-20T02:23:50.079Z,100885.50
2022-10-20T02:29:01.135Z,100893.22
2022-10-20T02:34:04.183Z,100881.50
2022-10-20T02:39:06.780Z,100906.28
2022-10-20T02:44:09.186Z,100885.09
2022-10-20T02:49:11.405Z,100889.31
2022-10-20T02:54:13.685Z,100893.56
2022-10-20T02:59:20.082Z,100909.22
2022-10-20T03:04:22.369Z,100888.34
2022-10-20T03:09:24.666Z,100928.66
2022-10-20T03:14:26.852Z,100891.03
2022-10-20T03:19:29.042Z,100909.09
2022-10-20T03:24:31.320Z,100922.00
2022-10-20T03:29:33.599Z,100914.28
2022-10-20T03:34:35.819Z,100918.84
2022-10-20T03:39:38.015Z,100948.94
2022-10-20T03:44:40.394Z,100943.22
2022-10-20T03:49:42.706Z,100912.44
2022-10-20T03:54:44.922Z,100920.78
2022-10-20T03:59:47.282Z,100950.78
2022-10-20T04:04:49.485Z,100940.75
2022-10-20T04:09:51.769Z,100942.06
2022-10-20T04:14:54.130Z,100958.13
2022-10-20T04:19:56.328Z,100934.03
2022-10-20T04:24:58.764Z,100913.00
2022-10-20T04:30:01.268Z,100953.28
2022-10-20T04:35:04.088Z,100940.44
2022-10-20T04:40:07.531Z,100953.69
2022-10-20T04:45:10.278Z,100970.09
2022-10-20T04:50:12.681Z,100956.69
2022-10-20T04:55:15.535Z,100965.41
2022-10-20T05:00:17.791Z,100957.22
2022-10-20T05:05:19.975Z,100959.84
2022-10-20T05:10:22.356Z,100965.75
2022-10-20T05:15:24.551Z,100978.28
2022-10-20T05:20:26.749Z,100961.56
2022-10-20T05:25:36.551Z,101004.06
2022-10-20T05:30:39.226Z,100988.66
2022-10-20T05:35:41.721Z,100986.47
2022-10-20T05:40:44.147Z,101020.66
2022-10-20T05:45:46.323Z,101031.00
2022-10-20T05:50:48.524Z,101039.56
2022-10-20T05:55:50.737Z,101048.91
2022-10-20T06:00:54.240Z,101046.91
2022-10-20T06:06:00.418Z,101083.38
2022-10-20T06:11:04.603Z,101084.00
2022-10-20T06:16:09.735Z,101104.94
2022-10-20T06:21:23.395Z,101107.03
2022-10-20T06:26:30.082Z,101110.84
2022-10-20T06:31:33.926Z,101119.47
2022-10-20T06:36:38.316Z,101111.84
2022-10-20T06:41:40.681Z,101119.84
2022-10-20T06:46:42.900Z,101096.84
2022-10-20T06:51:45.302Z,101120.34
2022-10-20T06:56:47.655Z,101115.09
2022-10-20T07:01:50.103Z,101105.81
2022-10-20T07:06:52.329Z,101124.69
2022-10-20T07:11:54.634Z,101149.22
2022-10-20T07:16:56.971Z,101144.50
2022-10-20T07:21:59.189Z,101114.81
2022-10-20T07:27:01.381Z,101118.34
2022-10-20T07:32:03.634Z,101146.19
2022-10-20T07:37:05.958Z,101124.81
2022-10-20T07:42:08.398Z,101134.97
2022-10-20T07:47:10.726Z,101134.72
2022-10-20T07:52:13.119Z,101146.38
2022-10-20T07:57:15.529Z,101131.16
2022-10-20T08:02:18.131Z,101136.88
2022-10-20T08:07:20.326Z,101117.84
2022-10-20T08:12:22.570Z,101127.59
2022-10-20T08:17:25.875Z,101146.88
2022-10-20T08:22:28.108Z,101134.41
2022-10-20T08:27:31.357Z,101121.22
2022-10-20T08:32:33.974Z,101138.78
2022-10-20T08:37:37.326Z,101144.50
2022-10-20T08:42:45.446Z,101128.72
2022-10-20T08:47:50.001Z,101133.31
2022-10-20T08:52:56.659Z,101132.72
2022-10-20T08:58:03.453Z,101149.59
2022-10-20T09:03:25.023Z,101148.91
2022-10-20T09:08:31.492Z,101129.56
2022-10-20T09:13:34.661Z,101135.81
2022-10-20T09:18:37.125Z,101141.34
2022-10-20T09:23:45.370Z,101112.56
2022-10-20T09:29:12.028Z,101136.25
2022-10-20T09:34:34.742Z,101139.22
2022-10-20T09:39:54.920Z,101127.91
2022-10-20T09:45:01.952Z,101131.84
2022-10-20T09:50:09.286Z,101125.22
2022-10-20T09:55:34.450Z,101133.19
2022-10-20T10:00:49.637Z,101107.03
2022-10-20T10:05:59.924Z,101105.47
2022-10-20T10:11:14.656Z,101119.25
2022-10-20T10:16:20.751Z,101124.03
2022-10-20T10:21:23.400Z,101126.63
2022-10-20T10:26:43.576Z,101108.00
2022-10-20T10:31:57.714Z,101092.00
2022-10-20T10:37:00.292Z,101079.56
2022-10-20T10:42:39.837Z,101086.25
2022-10-20T10:48:09.194Z,101082.00
2022-10-20T10:53:20.224Z,101079.66
2022-10-20T10:58:25.559Z,101082.75
2022-10-20T11:04:03.088Z,101076.97
2022-10-20T11:09:49.401Z,101071.53
2022-10-20T11:15:47.205Z,101072.97
2022-10-20T11:21:09.976Z,101068.09
2022-10-20T11:26:29.151Z,101053.50
2022-10-20T11:31:41.397Z,101054.97
2022-10-20T11:36:47.960Z,101040.97
2022-10-20T11:41:52.731Z,101047.59
2022-10-20T11:47:09.186Z,101033.00
2022-10-20T11:52:48.740Z,101037.25
2022-10-20T11:58:03.014Z,101027.25
2022-10-20T12:03:38.871Z,101015.44
2022-10-20T12:09:02.795Z,101022.66
2022-10-20T12:14:17.316Z,101015.38
2022-10-20T12:19:30.026Z,100978.56
2022-10-20T12:24:40.883Z,100990.66
2022-10-20T12:29:43.024Z,101005.50
2022-10-20T12:34:45.511Z,100993.25
2022-10-20T12:39:48.277Z,100988.69
2022-10-20T12:44:51.277Z,100984.88
2022-10-20T12:50:01.818Z,100989.25
2022-10-20T12:55:03.973Z,100976.72
2022-10-20T13:00:08.287Z,100960.97
2022-10-20T13:05:10.436Z,100978.84
2022-10-20T13:10:30.481Z,100976.25
2022-10-20T13:15:59.147Z,100965.63
2022-10-20T13:21:26.539Z,100970.06
2022-10-20T13:26:45.714Z,100945.44
2022-10-20T13:32:23.572Z,100941.44
2022-10-20T13:37:40.548Z,100972.69
2022-10-20T13:42:57.317Z,100957.63
2022-10-20T13:48:11.579Z,100968.13
2022-10-20T13:53:26.284Z,100953.59
2022-10-20T13:58:28.698Z,100948.75
2022-10-20T14:03:33.229Z,100944.13
2022-10-20T14:08:44.226Z,100967.81
2022-10-20T14:13:47.048Z,100963.19
2022-10-20T14:19:13.412Z,100975.25
2022-10-20T14:24:34.527Z,100983.03
2022-10-20T14:29:40.385Z,100960.84
2022-10-20T14:34:58.174Z,100966.38
2022-10-20T14:40:02.937Z,100972.44
2022-10-20T14:45:05.844Z,100976.56
2022-10-20T14:50:19.361Z,100981.69
2022-10-20T14:55:35.538Z,100961.75
2022-10-20T15:00:37.956Z,100964.91
2022-10-20T15:05:45.581Z,100986.75
2022-10-20T15:10:48.381Z,100981.28
2022-10-20T15:15:51.057Z,100966.41
2022-10-20T15:20:54.623Z,100984.06
2022-10-20T15:26:03.293Z,100994.47
2022-10-20T15:31:28.688Z,101001.25
2022-10-20T15:36:34.189Z,101009.41
2022-10-20T15:41:37.292Z,101008.34
2022-10-20T15:46:39.574Z,101014.91
2022-10-20T15:51:44.877Z,101011.13
2022-10-20T15:56:47.571Z,101022.13
2022-10-20T16:01:49.935Z,101010.19
2022-10-20T16:06:57.699Z,101023.78
2022-10-20T16:12:02.594Z,101029.00
2022-10-20T16:17:05.022Z,101037.59
2022-10-20T16:22:07.481Z,101039.00
2022-10-20T16:27:10.114Z,101030.25
2022-10-20T16:32:12.449Z,101055.19
2022-10-20T16:37:14.834Z,101052.47
2022-10-20T16:42:17.118Z,101061.78
2022-10-20T16:47:19.445Z,101044.00
2022-10-20T16:52:21.750Z,101075.56
2022-10-20T16:57:23.951Z,101085.06
2022-10-20T17:02:26.146Z,101070.81
2022-10-20T17:07:28.377Z,101095.63
2022-10-20T17:12:30.629Z,101107.22
2022-10-20T17:17:32.839Z,101074.03
2022-10-20T17:22:35.515Z,101093.63
2022-10-20T17:27:38.003Z,101117.00
2022-10-20T17:32:40.426Z,101111.28
2022-10-20T17:37:42.622Z,101124.63
2022-10-20T17:42:45.045Z,101109.94
2022-10-20T17:47:47.298Z,101112.84
2022-10-20T17:52:49.658Z,101118.94
2022-10-20T17:57:52.329Z,101108.78
2022-10-20T18:02:54.594Z,101114.44
2022-10-20T18:07:56.951Z,101142.78
2022-10-20T18:13:00.085Z,101152.66
2022-10-20T18:18:02.493Z,101148.09
2022-10-20T18:23:04.703Z,101157.50
2022-10-20T18:28:07.061Z,101146.03
2022-10-20T18:33:09.611Z,101154.16
2022-10-20T18:38:11.825Z,101173.53
2022-10-20T18:43:14.026Z,101167.47
2022-10-20T18:48:16.967Z,101157.25
2022-10-20T18:53:19.324Z,101183.91
2022-10-20T18:58:21.873Z,101165.94
2022-10-20T19:03:24.363Z,101166.13
2022-10-20T19:08:26.828Z,101185.50
2022-10-20T19:13:30.078Z,101206.50
2022-10-20T19:18:32.637Z,101200.16
2022-10-20T19:23:37.945Z,101201.19
2022-10-20T19:28:44.401Z,101217.00
2022-10-20T19:33:48.789Z,101230.69
2022-10-20T19:38:51.253Z,101238.53
2022-10-20T19:43:53.826Z,101233.09
2022-10-20T19:48:57.797Z,101235.97
2022-10-20T19:54:00.569Z,101247.50
2022-10-20T19:59:04.615Z,101251.38
2022-10-20T20:04:07.184Z,101233.56
2022-10-20T20:09:10.798Z,101244.78
2022-10-20T20:14:15.882Z,101255.94
2022-10-20T20:19:18.285Z,101275.50
2022-10-20T20:24:20.632Z,101271.44
2022-10-20T20:29:23.007Z,101262.22
2022-10-20T20:34:25.416Z,101275.81
2022-10-20T20:39:27.813Z,101259.00
2022-10-20T20:44:30.032Z,101287.78
2022-10-20T20:49:32.311Z,101281.28
2022-10-20T20:54:34.490Z,101298.66
2022-10-20T20:59:36.907Z,101299.63
2022-10-20T21:04:39.166Z,101286.91
2022-10-20T21:09:41.561Z,101292.22
2022-10-20T21:14:44.051Z,101297.09
2022-10-20T21:19:46.239Z,101314.88
2022-10-20T21:24:48.501Z,101312.34
2022-10-20T21:29:51.519Z,101302.31
2022-10-20T21:34:55.767Z,101309.84
2022-10-20T21:39:57.950Z,101317.94
2022-10-20T21:45:00.119Z,101332.91
2022-10-20T21:50:02.413Z,101332.34
2022-10-20T21:55:05.399Z,101330.03
2022-10-20T22:00:09.386Z,101332.53
2022-10-20T22:05:11.784Z,101323.06
2022-10-20T22:10:14.320Z,101342.56
2022-10-20T22:15:16.879Z,101342.00
2022-10-20T22:20:19.623Z,101314.22
2022-10-20T22:25:22.097Z,101336.22
2022-10-20T22:30:24.239Z,101346.09
2022-10-20T22:35:26.730Z,101361.16
2022-10-20T22:40:28.925Z,101346.38
2022-10-20T22:45:32.563Z,101360.63
2022-10-20T22:50:34.828Z,101343.66
2022-10-20T22:55:37.294Z,101361.38
2022-10-20T23:00:40.803Z,101355.69
2022-10-20T23:05:43.180Z,101338.53
2022-10-20T23:10:45.484Z,101346.78
2022-10-20T23:15:52.649Z,101352.81
2022-10-20T23:20:57.374Z,101366.59
2022-10-20T23:26:03.662Z,101374.19
2022-10-20T23:31:18.749Z,101379.09
2022-10-20T23:36:21.367Z,101361.63
2022-10-20T23:41:23.638Z,101354.66
2022-10-20T23:46:26.006Z,101370.75
2022-10-20T23:51:28.531Z,101361.66
2022-10-20T23:56:30.779Z,101352.94
